Time;durP1;ratioP1;P1;durP2;ratioP2;P2;SDS_P1;SDS_P2;PMS_P1;PMS_P2;Temp;Humidity;BMP_temperature;BMP_pressure;BME280_temperature;BME280_humidity;BME280_pressure;Samples;Min_cycle;Max_cycle;Signal;HPM_P1;HPM_P2
2022/05/27 00:01:48;;;;;;;15.13;5.15;;;14.20;99.90;;;;;;5046801;28;20041;-70
2022/05/27 00:04:14;;;;;;;13.52;5.07;;;14.10;99.90;;;;;;5029231;28;20619;-70
2022/05/27 00:06:39;;;;;;;13.02;5.47;;;14.10;99.90;;;;;;5045463;28;20050;-70
2022/05/27 00:09:05;;;;;;;10.38;4.15;;;14.00;99.90;;;;;;5029903;28;20037;-70
2022/05/27 00:11:31;;;;;;;11.73;4.70;;;14.10;99.90;;;;;;5046930;28;20049;-70
2022/05/27 00:13:57;;;;;;;8.05;4.00;;;14.10;99.90;;;;;;5046073;28;20049;-70
2022/05/27 00:16:23;;;;;;;12.60;4.45;;;14.10;99.90;;;;;;5028437;28;20054;-70
2022/05/27 00:18:49;;;;;;;15.52;4.15;;;13.90;99.90;;;;;;5045948;28;20041;-70
2022/05/27 00:21:15;;;;;;;14.43;4.18;;;13.90;99.90;;;;;;5046931;28;20461;-70
2022/05/27 00:23:41;;;;;;;10.82;4.40;;;14.20;99.90;;;;;;5040841;28;20068;-70
2022/05/27 00:26:07;;;;;;;11.27;4.25;;;14.00;99.90;;;;;;5046112;28;20049;-70
2022/05/27 00:28:32;;;;;;;10.20;4.68;;;13.90;99.90;;;;;;5032048;28;20045;-70
2022/05/27 00:30:58;;;;;;;8.88;4.53;;;13.90;99.90;;;;;;5046285;28;20053;-70
2022/05/27 00:33:24;;;;;;;11.02;4.10;;;13.80;99.90;;;;;;5031391;28;20147;-70
2022/05/27 00:35:51;;;;;;;11.70;4.68;;;13.80;99.90;;;;;;5045793;28;20060;-70
2022/05/27 00:38:17;;;;;;;15.73;4.68;;;13.80;99.90;;;;;;5030307;28;20105;-70
2022/05/27 00:40:46;;;;;;;8.50;3.60;;;13.70;99.90;;;;;;5045286;28;20037;-70
2022/05/27 00:43:12;;;;;;;12.10;3.77;;;13.80;99.90;;;;;;5029172;28;20392;-70
2022/05/27 00:45:40;;;;;;;10.13;3.92;;;13.80;99.90;;;;;;5028832;28;20076;-70
2022/05/27 00:48:17;;;;;;;10.20;3.92;;;13.70;99.90;;;;;;5045226;28;20486;-70
2022/05/27 00:50:45;;;;;;;10.82;4.35;;;13.60;99.90;;;;;;5029656;28;20100;-70
2022/05/27 00:53:16;;;;;;;12.68;4.07;;;13.60;99.90;;;;;;5045707;28;20100;-70
2022/05/27 00:55:47;;;;;;;12.73;3.88;;;13.80;99.90;;;;;;5063233;28;20045;-70
2022/05/27 00:58:22;;;;;;;14.85;4.07;;;13.70;99.90;;;;;;5031293;28;20129;-70
2022/05/27 01:00:48;;;;;;;11.23;4.38;;;13.60;99.90;;;;;;5045858;28;20111;-70
2022/05/27 01:03:16;;;;;;;10.35;4.10;;;13.60;99.90;;;;;;5044855;28;20484;-70
2022/05/27 01:05:44;;;;;;;10.77;4.72;;;13.60;99.90;;;;;;5045421;28;20053;-70
2022/05/27 01:08:12;;;;;;;11.10;3.70;;;13.60;99.90;;;;;;5045304;28;20120;-70
2022/05/27 01:10:47;;;;;;;10.40;4.10;;;13.50;99.90;;;;;;5030681;28;20077;-70
2022/05/27 01:13:20;;;;;;;11.55;4.10;;;13.60;99.90;;;;;;5046446;28;20041;-70
2022/05/27 01:16:07;;;;;;;11.00;4.60;;;13.50;99.90;;;;;;5042916;28;20053;-70
2022/05/27 01:21:33;;;;;;;10.95;5.07;;;13.30;99.90;;;;;;5046076;28;20099;-70
2022/05/27 01:24:21;;;;;;;14.45;4.57;;;13.40;99.90;;;;;;5041708;28;20124;-70
2022/05/27 01:27:12;;;;;;;12.65;4.32;;;13.30;99.90;;;;;;5030584;28;20041;-70
2022/05/27 01:30:15;;;;;;;10.35;4.43;;;13.30;99.90;;;;;;5044222;28;20049;-70
2022/05/27 01:32:52;;;;;;;15.50;4.85;;;13.30;99.90;;;;;;4949365;29;20051;-70
2022/05/27 01:35:30;;;;;;;12.85;4.28;;;13.20;99.90;;;;;;4948639;29;20090;-70
2022/05/27 01:38:18;;;;;;;15.50;4.88;;;13.20;99.90;;;;;;4963482;28;20058;-70
2022/05/27 01:41:06;;;;;;;13.48;4.63;;;13.20;99.90;;;;;;4946433;29;20048;-70
2022/05/27 01:43:44;;;;;;;14.55;5.68;;;13.10;99.90;;;;;;4948491;29;20051;-70
2022/05/27 01:46:22;;;;;;;11.90;4.88;;;13.20;99.90;;;;;;4949861;29;20056;-70
2022/05/27 01:49:02;;;;;;;15.93;5.05;;;13.10;99.90;;;;;;4948444;29;20048;-70
2022/05/27 01:51:34;;;;;;;;;;;13.20;99.90;;;;;;4932785;29;20064;-70
2022/05/27 01:54:02;;;;;;;16.23;5.45;;;13.10;99.90;;;;;;4947151;29;20014;-70
2022/05/27 01:56:41;;;;;;;19.70;5.35;;;13.00;99.90;;;;;;4944979;29;20095;-70
2022/05/27 01:59:13;;;;;;;14.68;4.60;;;13.10;99.90;;;;;;4948450;29;20044;-70
2022/05/27 02:01:45;;;;;;;17.27;4.57;;;13.00;99.90;;;;;;4947729;29;20079;-70
2022/05/27 02:04:25;;;;;;;18.40;5.03;;;13.00;99.90;;;;;;4946728;29;20044;-70
2022/05/27 02:07:00;;;;;;;;;;;12.90;99.90;;;;;;4951386;29;20127;-70
2022/05/27 02:09:34;;;;;;;17.90;4.70;;;13.00;99.90;;;;;;5011112;28;19921;-70
2022/05/27 02:12:07;;;;;;;19.25;4.65;;;12.90;99.90;;;;;;5045440;28;20050;-70
2022/05/27 02:14:38;;;;;;;16.58;5.32;;;13.00;99.90;;;;;;5043988;28;20049;-70
2022/05/27 02:17:09;;;;;;;14.07;5.32;;;12.90;99.90;;;;;;5044037;28;20060;-70
2022/05/27 02:19:53;;;;;;;13.52;4.47;;;13.00;99.90;;;;;;5026971;28;20433;-70
2022/05/27 02:22:43;;;;;;;17.50;5.65;;;12.90;99.90;;;;;;5037693;28;20097;-70
2022/05/27 02:25:16;;;;;;;16.55;4.68;;;13.20;99.90;;;;;;5043656;28;20061;-69
2022/05/27 02:28:04;;;;;;;18.20;4.70;;;13.00;99.90;;;;;;5030275;28;20052;-69
2022/05/27 02:30:33;;;;;;;16.05;4.72;;;12.90;99.90;;;;;;5064144;28;20049;-69
2022/05/27 02:35:58;;;;;;;17.50;4.63;;;13.00;99.90;;;;;;5032132;28;20076;-69
2022/05/27 02:38:26;;;;;;;19.10;4.60;;;12.90;99.90;;;;;;5044862;28;20655;-69
2022/05/27 02:41:18;;;;;;;21.02;4.88;;;13.00;99.90;;;;;;5046343;28;20048;-70
2022/05/27 02:44:06;;;;;;;15.05;3.90;;;12.90;99.90;;;;;;5032413;28;20046;-70
2022/05/27 02:47:03;;;;;;;20.00;4.72;;;12.70;99.90;;;;;;5030928;28;20059;-70
2022/05/27 02:49:51;;;;;;;18.73;4.97;;;12.70;99.90;;;;;;5030637;28;20053;-70
2022/05/27 02:52:20;;;;;;;16.42;5.07;;;12.70;99.90;;;;;;5025476;28;20065;-70
2022/05/27 02:55:11;;;;;;;15.45;3.85;;;12.60;99.90;;;;;;5026521;28;20053;-70
2022/05/27 02:57:47;;;;;;;16.17;4.43;;;12.70;99.90;;;;;;5021941;28;20072;-70
2022/05/27 03:00:18;;;;;;;15.63;4.72;;;12.50;99.90;;;;;;5026634;28;20057;-70
2022/05/27 03:02:45;;;;;;;20.17;4.95;;;12.60;99.90;;;;;;5046477;28;20076;-70
2022/05/27 03:05:12;;;;;;;13.70;4.85;;;12.60;99.90;;;;;;5060771;28;20080;-70
2022/05/27 03:07:58;;;;;;;18.02;5.07;;;12.50;99.90;;;;;;5026130;28;20104;-70
2022/05/27 03:10:53;;;;;;;15.65;4.82;;;12.40;99.90;;;;;;5038736;28;20236;-70
2022/05/27 03:13:35;;;;;;;15.35;3.75;;;12.40;99.90;;;;;;4989354;28;20057;-70
2022/05/27 03:16:05;;;;;;;22.50;5.90;;;12.40;99.90;;;;;;5040894;28;20044;-70
2022/05/27 03:19:04;;;;;;;17.30;4.97;;;12.40;99.90;;;;;;5030223;28;20045;-70
2022/05/27 03:21:44;;;;;;;19.70;4.28;;;12.40;99.90;;;;;;5026021;28;20061;-70
2022/05/27 03:24:28;;;;;;;16.30;4.18;;;12.40;99.90;;;;;;5026054;28;20041;-70
2022/05/27 03:27:18;;;;;;;17.05;5.53;;;12.30;99.90;;;;;;5043107;28;20260;-70
2022/05/27 03:30:04;;;;;;;13.43;4.20;;;12.40;99.90;;;;;;5025427;28;20053;-70
2022/05/27 03:32:35;;;;;;;16.15;4.65;;;12.10;99.90;;;;;;5025453;28;20508;-70
2022/05/27 03:35:13;;;;;;;13.15;4.65;;;12.10;99.90;;;;;;5026292;28;20105;-70
2022/05/27 03:37:50;;;;;;;14.13;4.15;;;12.20;99.90;;;;;;5027065;28;20041;-70
2022/05/27 03:40:37;;;;;;;18.48;5.03;;;12.20;99.90;;;;;;5029302;28;20046;-70
2022/05/27 03:43:04;;;;;;;15.52;4.30;;;12.20;99.90;;;;;;5048093;28;20050;-70
2022/05/27 03:45:29;;;;;;;17.88;4.22;;;12.10;99.90;;;;;;5063466;28;20053;-70
2022/05/27 03:47:55;;;;;;;18.80;4.55;;;12.20;99.90;;;;;;5028632;28;20048;-70
2022/05/27 03:50:24;;;;;;;16.23;4.78;;;12.30;99.90;;;;;;5029168;28;20482;-70
2022/05/27 03:52:52;;;;;;;13.02;4.57;;;12.10;99.90;;;;;;5045864;28;20406;-70
2022/05/27 03:55:22;;;;;;;23.25;4.35;;;12.10;99.90;;;;;;5029506;28;20057;-70
2022/05/27 03:57:48;;;;;;;16.55;3.95;;;12.20;99.90;;;;;;5011961;28;20049;-70
2022/05/27 04:00:15;;;;;;;18.83;4.80;;;12.10;99.90;;;;;;5029725;28;20107;-70
2022/05/27 04:02:42;;;;;;;13.77;4.03;;;12.30;99.90;;;;;;5052148;28;20045;-70
2022/05/27 04:05:10;;;;;;;16.42;4.43;;;12.10;99.90;;;;;;5023584;28;20187;-70
2022/05/27 04:07:36;;;;;;;14.55;3.78;;;12.20;99.90;;;;;;5044103;28;20049;-70
2022/05/27 04:10:03;;;;;;;21.77;5.13;;;12.10;99.90;;;;;;5028393;28;20084;-70
2022/05/27 04:12:29;;;;;;;14.23;3.40;;;12.30;99.90;;;;;;5028631;28;20050;-70
2022/05/27 04:14:55;;;;;;;20.00;4.10;;;12.30;99.90;;;;;;5028984;28;20076;-70
2022/05/27 04:17:32;;;;;;;14.68;4.68;;;12.20;99.90;;;;;;5028167;28;20046;-70
2022/05/27 04:20:07;;;;;;;15.98;3.67;;;12.30;99.90;;;;;;5029928;28;20132;-70
2022/05/27 04:22:33;;;;;;;15.00;4.25;;;12.40;99.90;;;;;;5047237;28;20167;-70
2022/05/27 04:24:59;;;;;;;11.05;3.50;;;12.30;99.90;;;;;;5032493;28;20045;-70
2022/05/27 04:27:25;;;;;;;13.70;3.92;;;12.20;99.90;;;;;;5032926;28;20067;-70
2022/05/27 04:29:52;;;;;;;14.88;2.92;;;12.20;99.90;;;;;;5029955;28;20053;-70
2022/05/27 04:32:20;;;;;;;12.25;2.95;;;12.30;99.90;;;;;;5034628;28;20056;-70
2022/05/27 04:34:46;;;;;;;9.93;2.70;;;12.20;99.90;;;;;;5031826;28;20067;-70
2022/05/27 04:37:12;;;;;;;9.07;3.10;;;12.40;99.90;;;;;;5045938;28;20124;-70
2022/05/27 04:39:38;;;;;;;12.45;4.38;;;12.40;99.90;;;;;;5011358;28;20049;-70
2022/05/27 04:42:05;;;;;;;18.48;4.18;;;12.40;99.90;;;;;;5046930;28;20045;-70
2022/05/27 04:44:30;;;;;;;17.42;3.30;;;12.50;99.90;;;;;;5028473;28;20073;-70
2022/05/27 04:46:56;;;;;;;14.65;3.92;;;12.60;99.90;;;;;;5032872;28;20049;-70
2022/05/27 04:52:06;;;;;;;21.27;5.18;;;12.60;99.90;;;;;;5030231;28;20069;-70
2022/05/27 04:54:32;;;;;;;15.15;4.22;;;12.50;99.90;;;;;;5032110;28;20054;-70
2022/05/27 04:56:59;;;;;;;18.70;4.15;;;12.50;99.90;;;;;;5032104;28;20046;-70
2022/05/27 04:59:25;;;;;;;13.50;4.07;;;12.50;99.90;;;;;;5045056;28;20045;-70
2022/05/27 05:01:51;;;;;;;15.32;4.15;;;12.50;99.90;;;;;;5031470;28;20103;-70
2022/05/27 05:04:16;;;;;;;14.50;4.68;;;12.60;99.90;;;;;;5033048;28;20049;-70
2022/05/27 05:06:43;;;;;;;15.90;4.32;;;12.40;99.90;;;;;;5045087;28;20092;-70
2022/05/27 05:09:09;;;;;;;17.90;5.88;;;12.40;99.90;;;;;;5029710;28;20048;-70
2022/05/27 05:11:35;;;;;;;15.00;3.80;;;12.80;99.90;;;;;;5029380;28;20084;-70
2022/05/27 05:14:01;;;;;;;17.40;4.20;;;12.70;99.90;;;;;;5027463;28;20480;-70
2022/05/27 05:16:26;;;;;;;12.73;4.10;;;12.60;99.90;;;;;;5032556;28;20045;-70
2022/05/27 05:18:52;;;;;;;15.43;4.25;;;12.60;99.90;;;;;;5045150;28;20076;-70
2022/05/27 05:21:18;;;;;;;17.23;4.28;;;12.60;99.90;;;;;;5012440;28;20109;-70
2022/05/27 05:23:43;;;;;;;16.58;3.95;;;12.60;99.90;;;;;;5009041;28;20061;-70
2022/05/27 05:26:09;;;;;;;13.52;3.65;;;12.40;99.90;;;;;;5024054;28;20038;-70
2022/05/27 05:28:35;;;;;;;14.23;3.30;;;12.60;99.90;;;;;;4991088;28;20100;-70
2022/05/27 05:31:01;;;;;;;16.17;4.22;;;12.60;99.90;;;;;;5007310;28;20050;-70
2022/05/27 05:33:27;;;;;;;14.23;3.80;;;12.60;99.90;;;;;;4993750;28;20077;-70
2022/05/27 05:35:53;;;;;;;17.55;4.07;;;12.60;99.90;;;;;;5023549;28;20081;-70
2022/05/27 05:38:19;;;;;;;13.50;3.30;;;12.50;99.90;;;;;;5044777;28;20049;-70
2022/05/27 05:40:46;;;;;;;18.83;4.18;;;12.60;99.90;;;;;;5043985;28;20659;-70
2022/05/27 05:43:13;;;;;;;16.48;4.00;;;12.70;99.90;;;;;;5024485;28;20079;-70
2022/05/27 05:45:39;;;;;;;25.63;3.85;;;12.60;99.90;;;;;;5027828;28;20077;-70
2022/05/27 05:48:06;;;;;;;10.88;2.88;;;12.80;99.90;;;;;;5022697;28;20049;-70
2022/05/27 05:50:33;;;;;;;14.18;3.00;;;12.70;99.90;;;;;;5027190;28;20128;-70
2022/05/27 05:53:00;;;;;;;16.48;3.53;;;12.70;99.90;;;;;;5027568;28;20060;-70
2022/05/27 05:55:26;;;;;;;20.65;3.95;;;12.70;99.90;;;;;;5021245;28;20060;-70
2022/05/27 05:57:52;;;;;;;13.63;2.90;;;12.80;99.90;;;;;;5010981;28;20046;-71
2022/05/27 06:00:25;;;;;;;13.23;3.22;;;12.80;99.90;;;;;;5028139;28;20527;-70
2022/05/27 06:02:51;;;;;;;14.52;3.33;;;12.80;99.90;;;;;;5022127;28;20104;-70
2022/05/27 06:05:18;;;;;;;16.65;2.88;;;12.80;99.90;;;;;;5022549;28;20045;-70
2022/05/27 06:07:44;;;;;;;15.48;3.30;;;12.80;99.90;;;;;;5024980;28;20060;-70
2022/05/27 06:10:12;;;;;;;15.50;3.45;;;12.80;99.90;;;;;;5026928;28;20056;-70
2022/05/27 06:12:38;;;;;;;15.25;3.55;;;13.00;99.90;;;;;;5024168;28;20097;-70
2022/05/27 06:15:07;;;;;;;15.30;3.55;;;12.80;99.90;;;;;;5010934;28;20059;-70
2022/05/27 06:17:33;;;;;;;11.40;2.80;;;12.90;99.90;;;;;;5039686;28;20132;-70
2022/05/27 06:19:59;;;;;;;12.10;3.50;;;12.90;99.90;;;;;;5027456;28;20097;-70
2022/05/27 06:22:25;;;;;;;13.70;3.40;;;13.00;99.90;;;;;;5026226;28;20063;-70
2022/05/27 06:24:51;;;;;;;14.70;3.15;;;13.10;99.90;;;;;;5043910;28;20037;-73
2022/05/27 06:27:17;;;;;;;12.27;3.42;;;13.10;99.90;;;;;;5026155;28;20057;-68
2022/05/27 06:35:11;;;;;;;15.95;3.17;;;13.30;99.90;;;;;;5027647;28;20075;-70
2022/05/27 06:37:37;;;;;;;12.75;3.00;;;13.30;99.90;;;;;;5005935;28;20092;-69
2022/05/27 06:40:06;;;;;;;15.40;3.35;;;13.30;99.90;;;;;;5020680;28;20068;-69
2022/05/27 06:42:32;;;;;;;15.02;3.85;;;13.40;99.90;;;;;;5037940;28;20053;-69
2022/05/27 06:44:57;;;;;;;16.20;3.72;;;13.40;99.90;;;;;;5023812;28;20049;-70
2022/05/27 06:47:23;;;;;;;18.15;3.60;;;13.30;99.90;;;;;;5022103;28;20064;-70
2022/05/27 06:49:49;;;;;;;16.00;3.63;;;13.40;99.90;;;;;;5021928;28;20053;-69
2022/05/27 06:52:15;;;;;;;16.88;3.83;;;13.40;99.90;;;;;;5007483;28;20056;-69
2022/05/27 06:54:42;;;;;;;18.02;4.55;;;13.50;99.90;;;;;;5019329;28;20052;-69
2022/05/27 06:57:08;;;;;;;18.08;3.35;;;13.60;99.90;;;;;;5021562;28;20046;-69
2022/05/27 06:59:35;;;;;;;18.00;3.80;;;13.70;99.90;;;;;;5007580;28;20042;-70
2022/05/27 07:02:02;;;;;;;13.75;3.17;;;13.70;99.90;;;;;;5015561;28;20065;-68
2022/05/27 07:04:28;;;;;;;12.20;3.92;;;13.70;99.90;;;;;;5030862;28;20064;-69
2022/05/27 07:06:54;;;;;;;18.65;4.13;;;13.70;99.90;;;;;;5016761;28;20056;-69
2022/05/27 07:09:22;;;;;;;16.52;3.00;;;13.70;99.90;;;;;;5021314;28;20045;-70
2022/05/27 07:11:50;;;;;;;17.13;3.05;;;13.80;99.90;;;;;;4993402;28;20129;-71
2022/05/27 07:14:17;;;;;;;12.38;3.63;;;13.50;99.90;;;;;;5019789;28;20137;-71
2022/05/27 07:16:45;;;;;;;15.55;3.92;;;13.60;99.90;;;;;;5003164;28;20512;-74
2022/05/27 07:19:11;;;;;;;12.68;3.70;;;13.50;99.90;;;;;;5025153;28;20046;-73
2022/05/27 07:21:43;;;;;;;14.85;3.50;;;13.70;99.90;;;;;;5039571;28;20454;-73
2022/05/27 07:24:13;;;;;;;12.65;3.85;;;13.70;99.90;;;;;;5057612;28;20061;-71
2022/05/27 07:26:40;;;;;;;11.43;3.03;;;13.70;99.90;;;;;;5024254;28;20507;-70
2022/05/27 07:29:07;;;;;;;16.50;4.10;;;13.80;99.90;;;;;;5025833;28;20049;-70
2022/05/27 07:31:35;;;;;;;14.20;3.53;;;13.80;99.90;;;;;;5009808;28;20657;-69
2022/05/27 07:34:01;;;;;;;12.80;3.03;;;13.90;99.90;;;;;;5052448;28;20065;-69
2022/05/27 07:36:26;;;;;;;14.40;3.17;;;13.90;99.90;;;;;;5016228;28;20125;-70
2022/05/27 07:38:52;;;;;;;16.67;3.55;;;13.80;99.90;;;;;;5042645;28;20065;-70
2022/05/27 07:41:22;;;;;;;12.43;3.45;;;13.70;99.90;;;;;;5031244;28;20049;-70
2022/05/27 07:43:49;;;;;;;13.65;3.75;;;13.60;99.90;;;;;;5058490;28;20064;-70
2022/05/27 07:46:16;;;;;;;9.88;3.55;;;13.60;99.90;;;;;;5028333;28;20472;-70
2022/05/27 07:48:45;;;;;;;11.80;3.05;;;13.70;99.90;;;;;;5022297;28;20053;-70
2022/05/27 07:51:11;;;;;;;12.77;3.13;;;13.50;99.90;;;;;;5027032;28;20116;-70
2022/05/27 07:53:38;;;;;;;14.88;3.33;;;13.70;99.90;;;;;;5042414;28;20363;-70
2022/05/27 07:56:06;;;;;;;10.18;3.17;;;13.60;99.90;;;;;;5028728;28;20056;-70
2022/05/27 07:58:32;;;;;;;14.63;3.72;;;13.50;99.90;;;;;;5026075;28;20057;-71
2022/05/27 08:00:58;;;;;;;12.55;4.22;;;13.50;99.90;;;;;;5033943;28;20113;-70
2022/05/27 08:03:24;;;;;;;15.57;3.95;;;13.70;99.90;;;;;;5051327;28;20190;-71
2022/05/27 08:05:50;;;;;;;12.32;3.47;;;13.90;99.90;;;;;;4999570;28;20080;-73
2022/05/27 08:08:18;;;;;;;13.13;3.83;;;14.00;99.90;;;;;;5019334;28;20109;-72
2022/05/27 08:10:44;;;;;;;15.20;3.45;;;14.00;99.90;;;;;;5010270;28;20072;-71
2022/05/27 08:13:10;;;;;;;10.85;3.72;;;14.00;99.90;;;;;;5011313;28;20432;-73
2022/05/27 08:15:36;;;;;;;13.88;3.97;;;14.10;99.90;;;;;;5036269;28;20049;-72
2022/05/27 08:18:02;;;;;;;13.27;3.40;;;14.10;99.90;;;;;;5026052;28;20055;-70
2022/05/27 08:20:30;;;;;;;13.60;3.80;;;14.20;99.90;;;;;;5035312;28;20140;-72
2022/05/27 08:22:57;;;;;;;15.25;3.78;;;14.20;99.90;;;;;;5027892;28;20057;-73
2022/05/27 08:25:24;;;;;;;14.68;4.43;;;14.30;99.90;;;;;;5040710;28;20049;-72
2022/05/27 08:27:50;;;;;;;9.90;3.35;;;14.40;99.90;;;;;;5056422;28;20041;-72
2022/05/27 08:30:20;;;;;;;10.90;3.22;;;14.30;99.90;;;;;;5046562;28;20064;-72
2022/05/27 08:32:47;;;;;;;15.90;4.57;;;14.40;99.90;;;;;;5020740;28;20087;-70
2022/05/27 08:38:22;;;;;;;9.07;3.22;;;14.30;99.90;;;;;;5017593;28;20072;-72
2022/05/27 08:41:14;;;;;;;11.40;3.70;;;14.30;99.90;;;;;;5000293;28;20050;-73
2022/05/27 08:44:07;;;;;;;15.02;3.50;;;14.50;99.90;;;;;;5015340;28;20107;-73
2022/05/27 08:46:59;;;;;;;11.23;3.00;;;14.50;99.90;;;;;;5010115;28;20069;-73
2022/05/27 08:49:35;;;;;;;12.32;4.03;;;14.20;99.90;;;;;;5020997;28;20045;-73
2022/05/27 08:52:05;;;;;;;9.85;3.28;;;14.20;99.90;;;;;;5010926;28;20350;-73
2022/05/27 08:54:37;;;;;;;15.70;4.07;;;14.30;99.90;;;;;;5019200;28;20052;-72
2022/05/27 09:00:14;;;;;;;12.45;3.53;;;14.40;99.90;;;;;;5009020;28;20409;-72
2022/05/27 09:02:49;;;;;;;10.88;3.03;;;14.30;99.90;;;;;;5018630;28;20049;-72
2022/05/27 09:05:24;;;;;;;18.67;3.97;;;14.40;99.90;;;;;;4989518;28;20109;-72
2022/05/27 09:08:21;;;;;;;10.65;3.38;;;14.60;99.90;;;;;;5021082;28;20071;-73
2022/05/27 09:10:59;;;;;;;14.43;4.18;;;14.50;99.90;;;;;;5009762;28;20045;-73
2022/05/27 09:13:36;;;;;;;14.88;3.67;;;14.40;99.90;;;;;;5000271;28;20069;-72
2022/05/27 09:16:24;;;;;;;12.23;3.17;;;14.30;99.90;;;;;;5040347;28;20049;-73
2022/05/27 09:19:16;;;;;;;19.60;3.35;;;14.40;99.90;;;;;;5042593;28;20038;-73
2022/05/27 09:22:12;;;;;;;9.80;3.50;;;14.60;99.90;;;;;;5027581;28;20504;-73
2022/05/27 09:24:58;;;;;;;12.45;4.13;;;14.70;99.90;;;;;;5052909;28;20669;-73
2022/05/27 09:27:29;;;;;;;13.10;3.28;;;14.90;99.90;;;;;;5008185;28;20363;-73
2022/05/27 09:30:14;;;;;;;15.10;4.18;;;14.80;99.90;;;;;;5014233;28;20455;-73
2022/05/27 09:32:58;;;;;;;13.93;4.22;;;15.00;99.90;;;;;;5028137;28;20520;-74
2022/05/27 09:35:43;;;;;;;16.63;3.97;;;14.70;99.90;;;;;;5005908;28;20053;-72
2022/05/27 09:38:19;;;;;;;11.25;4.28;;;14.80;99.90;;;;;;5051856;28;20049;-72
2022/05/27 09:40:50;;;;;;;11.23;3.08;;;14.90;99.90;;;;;;5009923;28;20076;-72
2022/05/27 09:43:20;;;;;;;15.65;3.28;;;15.10;99.90;;;;;;5030208;28;20057;-73
2022/05/27 09:45:53;;;;;;;9.48;2.88;;;15.00;99.90;;;;;;5001808;28;20046;-74
2022/05/27 09:48:19;;;;;;;11.80;3.28;;;14.70;99.90;;;;;;5022853;28;20113;-73
2022/05/27 09:50:47;;;;;;;9.80;3.08;;;14.90;99.90;;;;;;4997095;28;20119;-73
2022/05/27 09:53:27;;;;;;;8.95;3.13;;;15.00;99.90;;;;;;5036838;28;20405;-73
2022/05/27 09:56:04;;;;;;;10.38;2.95;;;15.10;99.90;;;;;;5024954;28;20050;-72
2022/05/27 09:58:40;;;;;;;13.63;3.17;;;14.90;99.90;;;;;;5043851;28;20350;-73
2022/05/27 10:01:23;;;;;;;12.80;2.88;;;14.60;99.90;;;;;;5021279;28;20049;-73
2022/05/27 10:04:06;;;;;;;10.93;3.20;;;14.90;99.90;;;;;;5018210;28;20045;-72
2022/05/27 10:06:34;;;;;;;9.95;2.50;;;14.80;99.90;;;;;;4981311;28;20057;-72
2022/05/27 10:09:08;;;;;;;12.75;3.10;;;14.80;99.90;;;;;;5006728;28;20045;-72
2022/05/27 10:11:46;;;;;;;9.20;3.38;;;14.90;99.90;;;;;;5033382;28;20273;-73
2022/05/27 10:14:24;;;;;;;9.82;2.75;;;15.00;99.90;;;;;;5027739;28;20156;-75
2022/05/27 10:17:09;;;;;;;11.32;2.55;;;15.30;99.90;;;;;;5000652;28;20057;-73
2022/05/27 10:19:40;;;;;;;8.75;2.67;;;15.10;99.90;;;;;;5033399;28;20049;-72
2022/05/27 10:22:27;;;;;;;11.18;3.25;;;15.10;99.90;;;;;;5025428;28;20048;-72
2022/05/27 10:25:00;;;;;;;10.88;2.92;;;15.30;99.90;;;;;;5016248;28;20129;-71
2022/05/27 10:27:36;;;;;;;13.50;3.17;;;15.50;99.90;;;;;;5003391;28;20050;-71
2022/05/27 10:30:09;;;;;;;13.68;3.63;;;15.40;99.90;;;;;;5012469;28;20041;-71
2022/05/27 10:32:38;;;;;;;12.45;3.05;;;15.30;99.90;;;;;;5044603;28;20037;-74
2022/05/27 10:35:27;;;;;;;11.73;3.20;;;15.00;99.90;;;;;;5002976;28;20049;-72
2022/05/27 10:38:15;;;;;;;10.63;2.83;;;15.20;99.90;;;;;;5019930;28;20060;-74
2022/05/27 10:41:20;;;;;;;14.27;3.65;;;15.30;99.90;;;;;;5036031;28;20045;-72
2022/05/27 10:43:54;;;;;;;16.08;3.05;;;15.30;99.90;;;;;;5012720;28;20046;-73
2022/05/27 10:46:23;;;;;;;26.27;3.35;;;15.40;99.90;;;;;;5030604;28;20046;-70
2022/05/27 10:49:30;;;;;;;13.68;3.42;;;15.20;99.90;;;;;;5054463;28;20049;-70
2022/05/27 10:52:02;;;;;;;11.27;2.80;;;15.50;99.90;;;;;;4938668;28;20058;-70
2022/05/27 10:54:30;;;;;;;12.38;2.60;;;15.40;99.90;;;;;;4967014;28;20350;-70
2022/05/27 11:03:15;;;;;;;19.33;3.78;;;15.30;99.90;;;;;;4961300;28;20093;-70
2022/05/27 11:06:15;;;;;;;10.88;3.03;;;15.60;99.90;;;;;;4932978;28;20055;-70
2022/05/27 11:08:57;;;;;;;;;;;15.80;99.90;;;;;;4967538;28;20146;-70
2022/05/27 11:11:36;;;;;;;14.77;3.35;;;15.80;99.90;;;;;;4970363;28;19922;-70
2022/05/27 11:17:59;;;;;;;14.63;4.55;;;16.00;99.90;;;;;;4965777;28;20230;-70
2022/05/27 11:20:52;;;;;;;17.33;3.38;;;15.80;99.90;;;;;;4948973;28;20762;-70
2022/05/27 11:23:28;;;;;;;15.40;3.30;;;15.50;99.90;;;;;;4938409;28;20063;-70
2022/05/27 11:26:11;;;;;;;11.05;2.88;;;15.70;99.90;;;;;;4949103;28;20051;-69
2022/05/27 11:28:40;;;;;;;51.47;4.85;;;15.80;99.90;;;;;;5006967;28;20052;-71
2022/05/27 11:31:36;;;;;;;11.25;2.47;;;15.80;99.90;;;;;;5012338;28;20476;-75
2022/05/27 11:34:24;;;;;;;13.32;2.75;;;16.10;99.90;;;;;;5023013;28;20042;-73
2022/05/27 11:37:10;;;;;;;15.10;2.65;;;16.30;99.90;;;;;;5018669;28;20064;-73
2022/05/27 11:40:06;;;;;;;11.88;3.67;;;16.20;99.90;;;;;;5010541;28;20063;-73
2022/05/27 11:42:57;;;;;;;12.93;3.60;;;16.20;99.90;;;;;;5039322;28;20076;-72
2022/05/27 11:45:25;;;;;;;11.98;3.65;;;16.10;99.90;;;;;;5000122;28;20396;-72
2022/05/27 11:48:03;;;;;;;16.88;3.90;;;16.20;99.90;;;;;;5039077;28;20097;-72
2022/05/27 11:50:47;;;;;;;12.55;3.22;;;16.20;99.90;;;;;;5013098;28;20064;-72
2022/05/27 11:53:28;;;;;;;16.45;2.80;;;16.20;99.90;;;;;;5040696;28;20053;-72
2022/05/27 11:55:59;;;;;;;14.68;3.88;;;16.10;99.90;;;;;;5010159;28;20041;-72
2022/05/27 11:58:39;;;;;;;10.88;3.47;;;16.20;99.90;;;;;;5039506;28;20072;-69
2022/05/27 12:01:10;;;;;;;12.23;2.72;;;16.60;99.90;;;;;;4999324;28;20084;-71
2022/05/27 12:03:54;;;;;;;17.77;2.85;;;16.40;99.90;;;;;;5010325;28;20056;-72
2022/05/27 12:06:29;;;;;;;16.20;3.00;;;16.10;99.90;;;;;;4979103;28;20123;-70
2022/05/27 12:09:06;;;;;;;10.95;2.50;;;15.90;99.90;;;;;;5018268;28;20045;-71
2022/05/27 12:11:40;;;;;;;8.43;2.63;;;15.90;99.90;;;;;;5007214;28;20053;-72
2022/05/27 12:14:29;;;;;;;12.68;3.25;;;15.90;99.90;;;;;;5015255;28;20068;-72
2022/05/27 12:16:58;;;;;;;15.00;3.40;;;15.80;99.90;;;;;;5025004;28;20057;-72
2022/05/27 12:19:32;;;;;;;12.82;3.75;;;15.70;99.90;;;;;;5025056;28;20049;-72
2022/05/27 12:22:07;;;;;;;19.58;3.38;;;15.90;99.90;;;;;;5024428;28;20135;-72
2022/05/27 12:24:45;;;;;;;12.63;3.28;;;16.20;99.90;;;;;;5022503;28;20053;-72
2022/05/27 12:27:15;;;;;;;14.23;2.95;;;16.30;99.90;;;;;;5024676;28;20495;-72
2022/05/27 12:29:42;;;;;;;56.85;7.10;;;16.40;99.90;;;;;;5024131;28;20034;-72
2022/05/27 12:32:10;;;;;;;17.33;3.17;;;16.10;99.90;;;;;;5023081;28;20068;-72
2022/05/27 12:34:36;;;;;;;16.73;3.42;;;16.20;99.90;;;;;;4999783;28;20045;-72
2022/05/27 12:37:25;;;;;;;21.45;3.88;;;16.30;99.90;;;;;;5023989;28;20158;-72
2022/05/27 12:40:13;;;;;;;15.27;3.88;;;16.20;99.90;;;;;;5021966;28;20413;-72
2022/05/27 12:42:41;;;;;;;110.88;9.15;;;16.20;99.90;;;;;;5012978;28;20091;-73
2022/05/27 12:45:38;;;;;;;14.38;2.83;;;16.30;99.90;;;;;;5008401;28;20041;-76
2022/05/27 12:48:06;;;;;;;49.38;5.20;;;16.30;99.90;;;;;;4981008;28;20045;-72
2022/05/27 12:50:36;;;;;;;30.17;4.32;;;16.30;99.90;;;;;;4995298;28;20050;-72
2022/05/27 12:53:18;;;;;;;15.15;3.17;;;16.40;99.90;;;;;;5040417;28;20099;-72
2022/05/27 13:02:14;;;;;;;27.50;4.47;;;15.70;99.90;;;;;;5006807;28;20067;-75
2022/05/27 13:04:52;;;;;;;54.28;5.43;;;15.90;99.90;;;;;;5048564;28;20384;-75
2022/05/27 13:07:43;;;;;;;12.52;3.22;;;16.40;99.90;;;;;;5023548;28;20052;-73
2022/05/27 13:10:18;;;;;;;15.13;3.75;;;16.50;99.90;;;;;;5009562;28;20120;-74
2022/05/27 13:12:47;;;;;;;16.95;3.38;;;16.70;99.90;;;;;;4976604;28;20529;-73
2022/05/27 13:15:53;;;;;;;17.92;3.78;;;17.00;99.90;;;;;;5019280;28;20046;-73
2022/05/27 13:18:31;;;;;;;18.98;3.45;;;17.00;99.90;;;;;;4974315;28;20084;-73
2022/05/27 13:21:04;;;;;;;24.05;4.38;;;16.70;99.90;;;;;;5000798;28;20065;-74
2022/05/27 13:23:32;;;;;;;54.40;5.78;;;17.00;99.90;;;;;;5033880;28;20057;-73
2022/05/27 13:26:13;;;;;;;47.67;5.43;;;16.60;99.90;;;;;;5012013;28;20058;-74
2022/05/27 13:28:55;;;;;;;16.92;2.95;;;16.30;99.90;;;;;;5034182;28;20108;-74
2022/05/27 13:31:41;;;;;;;17.63;3.20;;;16.30;99.90;;;;;;5017923;28;20049;-74
2022/05/27 13:34:18;;;;;;;12.57;2.97;;;16.20;99.90;;;;;;5032236;28;20068;-74
2022/05/27 13:36:57;;;;;;;14.00;3.42;;;16.60;99.90;;;;;;5021338;28;20070;-74
2022/05/27 13:39:34;;;;;;;19.05;4.18;;;16.60;99.90;;;;;;5011137;28;20063;-74
2022/05/27 13:42:00;;;;;;;20.08;3.90;;;16.90;99.90;;;;;;5027283;28;20049;-74
2022/05/27 13:44:27;;;;;;;63.22;6.75;;;16.50;99.90;;;;;;5023903;28;20100;-73
2022/05/27 13:46:56;;;;;;;18.23;3.92;;;16.30;99.90;;;;;;5041348;28;20057;-74